Time;durP1;ratioP1;P1;durP2;ratioP2;P2;SDS_P1;SDS_P2;PMS_P1;PMS_P2;Temp;Humidity;BMP_temperature;BMP_pressure;BME280_temperature;BME280_humidity;BME280_pressure;Samples;Min_cycle;Max_cycle;Signal;HPM_P1;HPM_P2
2022/11/10 00:00:16;;;;;;;25.38;8.38;;;;;;;;;;5009597;28;20662;-76
2022/11/10 00:02:43;;;;;;;16.92;9.18;;;;;;;;;;4994182;28;20715;-77
2022/11/10 00:05:09;;;;;;;22.13;9.20;;;;;;;;;;4984845;28;20040;-77
2022/11/10 00:07:35;;;;;;;24.17;8.25;;;;;;;;;;4992283;28;20884;-77
2022/11/10 00:10:01;;;;;;;18.88;9.63;;;;;;;;;;5002559;28;20055;-77
2022/11/10 00:12:29;;;;;;;20.70;9.63;;;;;;;;;;4990012;28;20439;-76
2022/11/10 00:17:40;;;;;;;18.83;8.07;;;;;;;;;;5003320;28;20565;-76
2022/11/10 00:20:06;;;;;;;10.45;6.75;;;;;;;;;;4967983;28;20047;-76
2022/11/10 00:22:33;;;;;;;20.50;7.15;;;;;;;;;;4993777;28;20037;-76
2022/11/10 00:24:59;;;;;;;27.90;7.07;;;;;;;;;;4972674;28;20147;-77
2022/11/10 00:27:25;;;;;;;15.23;6.07;;;;;;;;;;4994004;28;20047;-77
2022/11/10 00:29:51;;;;;;;25.05;4.90;;;;;;;;;;4987323;28;20227;-79
2022/11/10 00:32:17;;;;;;;17.42;5.30;;;;;;;;;;5006553;28;20092;-78
2022/11/10 00:34:43;;;;;;;16.38;4.53;;;;;;;;;;4976553;28;21294;-78
2022/11/10 00:37:10;;;;;;;16.98;4.20;;;;;;;;;;4993295;28;20122;-78
2022/11/10 00:39:36;;;;;;;12.80;4.05;;;;;;;;;;4995810;28;20127;-78
2022/11/10 00:42:02;;;;;;;13.77;3.85;;;;;;;;;;4990862;28;21256;-78
2022/11/10 00:44:28;;;;;;;26.60;4.50;;;;;;;;;;5014353;28;20044;-78
2022/11/10 00:46:54;;;;;;;24.92;3.63;;;;;;;;;;4989287;28;20028;-78
2022/11/10 00:49:20;;;;;;;15.60;3.95;;;;;;;;;;5015304;28;20477;-78
2022/11/10 00:51:46;;;;;;;13.68;3.83;;;;;;;;;;5016297;28;20045;-78
2022/11/10 00:54:13;;;;;;;18.48;3.92;;;;;;;;;;5011649;28;20048;-78
2022/11/10 00:56:39;;;;;;;14.40;4.07;;;;;;;;;;5011520;28;20041;-79
2022/11/10 00:59:05;;;;;;;17.88;4.40;;;;;;;;;;4996634;28;20063;-78
2022/11/10 01:01:31;;;;;;;18.92;4.45;;;;;;;;;;5011421;28;20083;-78
2022/11/10 01:03:57;;;;;;;17.08;3.85;;;;;;;;;;5022558;28;22014;-78
2022/11/10 01:06:23;;;;;;;15.35;4.22;;;;;;;;;;4985576;28;20060;-78
2022/11/10 01:08:49;;;;;;;14.00;5.60;;;;;;;;;;5025345;28;20064;-78
2022/11/10 01:11:17;;;;;;;21.48;4.80;;;;;;;;;;4965094;28;20519;-78
2022/11/10 01:13:44;;;;;;;10.95;4.13;;;;;;;;;;5002135;28;20465;-78
2022/11/10 01:16:15;;;;;;;14.73;4.05;;;;;;;;;;5005626;28;20515;-78
2022/11/10 01:18:41;;;;;;;16.30;3.85;;;;;;;;;;5009450;28;20037;-78
2022/11/10 01:21:07;;;;;;;19.17;4.40;;;;;;;;;;4995365;28;20055;-78
2022/11/10 01:23:33;;;;;;;19.20;5.97;;;;;;;;;;5012973;28;20594;-77
2022/11/10 01:26:00;;;;;;;21.13;5.13;;;;;;;;;;5015597;28;20052;-78
2022/11/10 01:28:27;;;;;;;21.55;4.72;;;;;;;;;;5017799;28;20056;-77
2022/11/10 01:30:57;;;;;;;15.00;4.18;;;;;;;;;;5032078;28;20083;-77
2022/11/10 01:33:24;;;;;;;22.77;4.40;;;;;;;;;;5022349;28;20056;-78
2022/11/10 01:35:50;;;;;;;30.98;6.20;;;;;;;;;;5041434;28;20045;-78
2022/11/10 01:38:16;;;;;;;16.75;4.45;;;;;;;;;;5016649;28;20105;-78
2022/11/10 01:40:42;;;;;;;25.75;4.95;;;;;;;;;;5017379;28;20077;-78
2022/11/10 01:43:09;;;;;;;24.08;4.57;;;;;;;;;;5011094;28;20037;-77
2022/11/10 01:45:54;;;;;;;24.17;5.05;;;;;;;;;;5004373;28;20152;-77
2022/11/10 01:48:44;;;;;;;17.95;4.88;;;;;;;;;;5005792;28;20102;-77
2022/11/10 01:51:16;;;;;;;20.70;4.50;;;;;;;;;;5009509;28;20131;-77
2022/11/10 01:53:44;;;;;;;22.30;4.72;;;;;;;;;;4997728;28;20986;-78
2022/11/10 01:56:11;;;;;;;24.15;4.38;;;;;;;;;;5009689;28;20075;-77
2022/11/10 01:58:40;;;;;;;14.38;4.75;;;;;;;;;;4984335;28;20044;-78
2022/11/10 02:01:07;;;;;;;23.30;4.97;;;;;;;;;;5000732;28;20714;-77
2022/11/10 02:03:36;;;;;;;24.67;5.40;;;;;;;;;;5014145;28;20045;-77
2022/11/10 02:06:03;;;;;;;17.80;4.85;;;;;;;;;;5024790;28;20041;-77
2022/11/10 02:08:29;;;;;;;18.55;4.82;;;;;;;;;;5026014;28;20079;-76
2022/11/10 02:10:56;;;;;;;23.25;4.85;;;;;;;;;;5017655;28;20076;-77
2022/11/10 02:13:22;;;;;;;21.63;5.20;;;;;;;;;;5003559;28;20619;-77
2022/11/10 02:15:48;;;;;;;20.63;5.97;;;;;;;;;;5017221;28;20052;-77
2022/11/10 02:18:14;;;;;;;16.55;6.00;;;;;;;;;;5018231;28;20052;-78
2022/11/10 02:20:43;;;;;;;23.10;6.85;;;;;;;;;;5000667;28;22757;-77
2022/11/10 02:23:10;;;;;;;22.95;5.80;;;;;;;;;;4977924;28;20045;-77
2022/11/10 02:25:36;;;;;;;24.23;5.88;;;;;;;;;;4989222;28;20047;-77
2022/11/10 02:28:03;;;;;;;20.65;5.97;;;;;;;;;;4969900;28;20128;-78
2022/11/10 02:30:29;;;;;;;21.90;6.68;;;;;;;;;;4988867;28;22648;-78
2022/11/10 02:32:55;;;;;;;23.60;7.25;;;;;;;;;;5020603;28;20049;-77
2022/11/10 02:35:21;;;;;;;22.73;6.45;;;;;;;;;;5022007;28;20563;-78
2022/11/10 02:37:47;;;;;;;30.35;7.32;;;;;;;;;;5010914;28;20197;-78
2022/11/10 02:40:13;;;;;;;25.08;7.97;;;;;;;;;;5026119;28;20041;-77
2022/11/10 02:42:39;;;;;;;28.90;7.43;;;;;;;;;;5026369;28;21079;-77
2022/11/10 02:45:07;;;;;;;19.42;7.10;;;;;;;;;;5010179;28;20041;-78
2022/11/10 02:47:33;;;;;;;24.35;8.35;;;;;;;;;;5029633;28;20052;-77
2022/11/10 02:49:59;;;;;;;28.65;7.65;;;;;;;;;;5009221;28;20048;-77
2022/11/10 02:52:25;;;;;;;24.25;8.65;;;;;;;;;;4959628;28;20048;-77
2022/11/10 02:54:51;;;;;;;21.48;7.85;;;;;;;;;;4998306;28;20049;-77
2022/11/10 02:57:17;;;;;;;35.67;8.57;;;;;;;;;;4988789;28;20045;-78
2022/11/10 02:59:43;;;;;;;24.25;7.75;;;;;;;;;;4993283;28;20055;-78
2022/11/10 03:02:10;;;;;;;22.48;7.60;;;;;;;;;;4994009;28;20043;-77
2022/11/10 03:04:36;;;;;;;20.98;8.27;;;;;;;;;;5025126;28;20067;-78
2022/11/10 03:07:02;;;;;;;24.20;8.23;;;;;;;;;;4985051;28;20043;-78
2022/11/10 03:09:28;;;;;;;34.65;7.38;;;;;;;;;;4995200;28;20047;-77
2022/11/10 03:11:54;;;;;;;27.55;10.35;;;;;;;;;;4993772;28;20048;-78
2022/11/10 03:14:20;;;;;;;28.00;8.93;;;;;;;;;;5018203;28;20520;-78
2022/11/10 03:16:46;;;;;;;22.23;7.50;;;;;;;;;;5015279;28;20072;-77
2022/11/10 03:19:12;;;;;;;28.38;8.73;;;;;;;;;;5012768;28;20045;-77
2022/11/10 03:21:38;;;;;;;26.48;8.65;;;;;;;;;;5021272;28;20099;-74
2022/11/10 03:24:05;;;;;;;37.45;7.97;;;;;;;;;;5022651;28;20049;-77
2022/11/10 03:26:31;;;;;;;22.25;8.23;;;;;;;;;;4996976;28;20045;-76
2022/11/10 03:28:57;;;;;;;23.65;7.38;;;;;;;;;;4998189;28;20044;-76
2022/11/10 03:31:23;;;;;;;35.13;10.32;;;;;;;;;;5016318;28;20135;-76
2022/11/10 03:33:49;;;;;;;27.95;10.18;;;;;;;;;;4996163;28;20084;-76
2022/11/10 03:36:15;;;;;;;28.67;8.93;;;;;;;;;;5012315;28;20404;-76
2022/11/10 03:38:41;;;;;;;31.52;9.57;;;;;;;;;;4985563;28;20041;-76
2022/11/10 03:41:07;;;;;;;25.20;8.23;;;;;;;;;;4994329;28;20040;-76
2022/11/10 03:43:33;;;;;;;26.20;8.15;;;;;;;;;;5006479;28;22125;-77
2022/11/10 03:45:59;;;;;;;25.60;8.40;;;;;;;;;;4991537;28;21008;-76
2022/11/10 03:48:25;;;;;;;31.13;8.52;;;;;;;;;;4986626;28;20041;-76
2022/11/10 03:50:51;;;;;;;24.23;7.82;;;;;;;;;;5008247;28;20055;-76
2022/11/10 03:53:17;;;;;;;29.95;8.80;;;;;;;;;;5003626;28;20127;-76
2022/11/10 03:55:43;;;;;;;30.10;8.70;;;;;;;;;;5024856;28;20136;-77
2022/11/10 03:58:10;;;;;;;25.92;8.93;;;;;;;;;;5005525;28;20169;-77
2022/11/10 04:00:36;;;;;;;29.45;9.02;;;;;;;;;;5005672;28;21888;-77
2022/11/10 04:03:02;;;;;;;31.48;9.57;;;;;;;;;;5019700;28;20162;-77
2022/11/10 04:10:58;;;;;;;27.40;9.27;;;;;;;;;;5005926;28;20099;-76
2022/11/10 04:16:09;;;;;;;23.98;8.32;;;;;;;;;;5011812;28;21062;-77
2022/11/10 04:18:35;;;;;;;26.08;7.68;;;;;;;;;;5006101;28;20033;-77
2022/11/10 04:21:02;;;;;;;30.52;9.02;;;;;;;;;;5008806;28;21019;-77
2022/11/10 04:23:33;;;;;;;34.40;8.98;;;;;;;;;;5007299;28;20086;-77
2022/11/10 04:26:49;;;;;;;24.65;8.13;;;;;;;;;;5035883;28;20037;-77
2022/11/10 04:28:51;;;;;;;23.10;8.15;;;;;;;;;;5011163;28;20052;-77
2022/11/10 04:31:18;;;;;;;28.08;8.02;;;;;;;;;;5016191;28;20061;-77
2022/11/10 04:33:45;;;;;;;29.25;8.57;;;;;;;;;;5014318;28;20084;-77
2022/11/10 04:36:12;;;;;;;28.80;7.72;;;;;;;;;;4973300;28;20040;-77
2022/11/10 04:38:38;;;;;;;30.00;7.60;;;;;;;;;;5005004;28;20036;-77
2022/11/10 04:41:05;;;;;;;28.88;8.00;;;;;;;;;;5004759;28;20047;-77
2022/11/10 04:43:31;;;;;;;29.33;7.45;;;;;;;;;;5011803;28;20103;-77
2022/11/10 04:45:58;;;;;;;21.48;8.40;;;;;;;;;;5008729;28;21108;-77
2022/11/10 04:48:26;;;;;;;25.02;7.60;;;;;;;;;;5002440;28;20436;-77
2022/11/10 04:50:52;;;;;;;23.60;9.63;;;;;;;;;;4991728;28;20501;-78
2022/11/10 04:53:19;;;;;;;26.38;8.43;;;;;;;;;;4992498;28;21527;-77
2022/11/10 04:55:45;;;;;;;21.08;7.07;;;;;;;;;;4993966;28;20062;-77
2022/11/10 04:58:12;;;;;;;21.50;7.55;;;;;;;;;;5013910;28;20122;-77
2022/11/10 05:00:38;;;;;;;27.50;8.10;;;;;;;;;;5023703;28;21677;-77
2022/11/10 05:03:05;;;;;;;25.55;9.32;;;;;;;;;;5020000;28;20147;-77
2022/11/10 05:05:31;;;;;;;33.13;9.88;;;;;;;;;;5008928;28;20068;-77
2022/11/10 05:07:57;;;;;;;31.42;7.93;;;;;;;;;;4994328;28;20062;-76
2022/11/10 05:10:24;;;;;;;25.77;8.02;;;;;;;;;;5005335;28;20984;-77
2022/11/10 05:13:00;;;;;;;23.95;7.70;;;;;;;;;;4993136;28;20178;-77
2022/11/10 05:15:26;;;;;;;30.42;9.85;;;;;;;;;;4990443;28;20055;-77
2022/11/10 05:17:53;;;;;;;31.20;10.35;;;;;;;;;;5001729;28;20516;-77
2022/11/10 05:20:25;;;;;;;31.50;9.30;;;;;;;;;;5023898;28;20040;-77
2022/11/10 05:25:38;;;;;;;26.42;8.45;;;;;;;;;;5003880;28;20049;-76
2022/11/10 05:28:05;;;;;;;25.25;8.77;;;;;;;;;;5009964;28;21207;-76
2022/11/10 05:30:31;;;;;;;33.40;10.27;;;;;;;;;;5014942;28;20685;-77
2022/11/10 05:32:58;;;;;;;30.60;8.65;;;;;;;;;;5012898;28;21091;-78
2022/11/10 05:35:25;;;;;;;30.95;8.90;;;;;;;;;;4992703;28;20045;-76
2022/11/10 05:37:51;;;;;;;25.92;9.77;;;;;;;;;;5029940;28;20041;-76
2022/11/10 05:40:17;;;;;;;27.90;9.05;;;;;;;;;;5014418;28;20132;-76
2022/11/10 05:42:44;;;;;;;46.08;10.77;;;;;;;;;;5016213;28;20079;-76
2022/11/10 05:45:10;;;;;;;28.30;9.35;;;;;;;;;;5006357;28;20894;-76
2022/11/10 05:47:37;;;;;;;35.63;10.35;;;;;;;;;;4992216;28;20169;-78
2022/11/10 05:50:04;;;;;;;39.35;10.93;;;;;;;;;;4993944;28;20044;-78
2022/11/10 05:52:30;;;;;;;30.42;10.40;;;;;;;;;;5012596;28;20515;-78
2022/11/10 05:54:56;;;;;;;29.50;8.82;;;;;;;;;;5002309;28;20048;-77
2022/11/10 05:57:22;;;;;;;39.70;10.45;;;;;;;;;;5014363;28;20052;-77
2022/11/10 05:59:48;;;;;;;31.55;10.00;;;;;;;;;;5008068;28;20535;-77
2022/11/10 06:02:14;;;;;;;37.17;10.80;;;;;;;;;;5024117;28;20190;-78
2022/11/10 06:04:40;;;;;;;28.00;8.13;;;;;;;;;;5020848;28;20051;-78
2022/11/10 06:07:07;;;;;;;34.08;8.98;;;;;;;;;;4995740;28;20868;-78
2022/11/10 06:09:33;;;;;;;28.63;9.13;;;;;;;;;;5010996;28;20074;-77
2022/11/10 06:12:02;;;;;;;26.77;8.45;;;;;;;;;;5021250;28;20052;-77
2022/11/10 06:14:28;;;;;;;35.65;9.60;;;;;;;;;;5013954;28;20040;-78
2022/11/10 06:16:54;;;;;;;30.67;8.05;;;;;;;;;;4991809;28;20233;-77
2022/11/10 06:19:20;;;;;;;34.03;8.90;;;;;;;;;;4993170;28;20045;-77
2022/11/10 06:21:46;;;;;;;32.92;9.00;;;;;;;;;;4984572;28;20117;-77
2022/11/10 06:24:12;;;;;;;21.05;7.85;;;;;;;;;;5004078;28;20041;-78
2022/11/10 06:26:38;;;;;;;29.40;8.95;;;;;;;;;;5023101;28;20562;-77
2022/11/10 06:29:04;;;;;;;25.90;6.93;;;;;;;;;;4978845;28;20734;-78
2022/11/10 06:31:31;;;;;;;22.83;7.50;;;;;;;;;;5001717;28;20057;-78
2022/11/10 06:33:57;;;;;;;33.20;7.90;;;;;;;;;;5002811;28;20055;-78
2022/11/10 06:36:23;;;;;;;26.50;7.28;;;;;;;;;;5025113;28;20138;-78
2022/11/10 06:38:49;;;;;;;31.85;7.75;;;;;;;;;;5025384;28;20055;-78
2022/11/10 06:41:15;;;;;;;29.27;7.55;;;;;;;;;;5006711;28;20037;-77
2022/11/10 06:43:41;;;;;;;27.25;7.82;;;;;;;;;;5040229;28;20532;-78
2022/11/10 06:46:07;;;;;;;30.50;7.63;;;;;;;;;;5040050;28;20059;-77
2022/11/10 06:48:33;;;;;;;25.88;6.43;;;;;;;;;;5023397;28;20373;-78
2022/11/10 06:51:00;;;;;;;38.50;7.93;;;;;;;;;;4989313;28;20132;-78
2022/11/10 06:53:26;;;;;;;22.23;6.50;;;;;;;;;;5017428;28;20048;-78
2022/11/10 06:55:52;;;;;;;29.83;8.05;;;;;;;;;;4988380;28;20051;-79
2022/11/10 06:58:18;;;;;;;32.22;6.78;;;;;;;;;;5001004;28;20660;-78
2022/11/10 07:00:45;;;;;;;25.73;6.47;;;;;;;;;;5013326;28;20082;-78
2022/11/10 07:03:15;;;;;;;32.47;7.43;;;;;;;;;;4984733;28;20135;-79
2022/11/10 07:05:41;;;;;;;23.45;5.63;;;;;;;;;;4988994;28;20591;-79
2022/11/10 07:08:15;;;;;;;28.50;6.10;;;;;;;;;;5012336;28;20496;-78
2022/11/10 07:10:42;;;;;;;23.90;6.28;;;;;;;;;;5014464;28;21751;-77
2022/11/10 07:13:09;;;;;;;32.70;6.38;;;;;;;;;;5014637;28;20397;-78
2022/11/10 07:15:35;;;;;;;25.38;5.95;;;;;;;;;;5032334;28;20131;-78
2022/11/10 07:18:02;;;;;;;21.75;5.68;;;;;;;;;;5012444;28;22548;-77
2022/11/10 07:20:29;;;;;;;28.98;6.65;;;;;;;;;;5013766;28;20412;-78
2022/11/10 07:22:59;;;;;;;22.52;5.68;;;;;;;;;;5011906;28;21644;-78
2022/11/10 07:25:25;;;;;;;41.63;6.63;;;;;;;;;;4997141;28;20071;-78
2022/11/10 07:27:55;;;;;;;24.23;5.15;;;;;;;;;;5020619;28;20123;-79
2022/11/10 07:30:22;;;;;;;26.33;5.60;;;;;;;;;;5015923;28;20493;-78
2022/11/10 07:32:56;;;;;;;32.38;6.35;;;;;;;;;;4994125;28;20053;-78
2022/11/10 07:35:22;;;;;;;23.27;5.50;;;;;;;;;;4993252;28;20053;-77
2022/11/10 07:37:52;;;;;;;28.80;6.72;;;;;;;;;;5043887;28;20662;-77
2022/11/10 07:40:20;;;;;;;35.83;7.18;;;;;;;;;;5029919;28;20052;-78
2022/11/10 07:42:46;;;;;;;17.52;5.13;;;;;;;;;;5005061;28;20044;-77
2022/11/10 07:45:13;;;;;;;27.65;6.30;;;;;;;;;;4990060;28;20053;-78
2022/11/10 07:47:39;;;;;;;25.38;6.30;;;;;;;;;;4994184;28;20390;-78
2022/11/10 07:50:05;;;;;;;20.98;5.57;;;;;;;;;;4973025;28;20068;-78
2022/11/10 07:52:31;;;;;;;25.30;6.20;;;;;;;;;;5014657;28;21744;-77
2022/11/10 07:54:57;;;;;;;29.65;7.72;;;;;;;;;;5015831;28;20505;-77
2022/11/10 07:57:23;;;;;;;20.95;6.63;;;;;;;;;;4990799;28;20045;-77
2022/11/10 07:59:49;;;;;;;39.13;7.30;;;;;;;;;;5016419;28;20536;-78
2022/11/10 08:02:15;;;;;;;27.63;6.88;;;;;;;;;;4997864;28;20491;-77
2022/11/10 08:04:42;;;;;;;31.65;6.70;;;;;;;;;;5011529;28;20085;-78
2022/11/10 08:07:08;;;;;;;22.25;6.10;;;;;;;;;;5013902;28;20040;-78
2022/11/10 08:09:34;;;;;;;26.70;5.72;;;;;;;;;;5018923;28;20040;-78
2022/11/10 08:12:00;;;;;;;29.20;8.25;;;;;;;;;;5000439;28;20051;-78
2022/11/10 08:14:26;;;;;;;28.83;6.13;;;;;;;;;;5001960;28;21888;-79
2022/11/10 08:16:52;;;;;;;24.98;5.75;;;;;;;;;;5016863;28;20104;-78
2022/11/10 08:19:18;;;;;;;28.58;6.50;;;;;;;;;;5013751;28;20100;-78
2022/11/10 08:21:44;;;;;;;29.70;5.50;;;;;;;;;;5047457;28;20040;-78
2022/11/10 08:24:10;;;;;;;19.70;5.18;;;;;;;;;;5040765;28;20045;-78
2022/11/10 08:26:39;;;;;;;28.02;5.20;;;;;;;;;;4989183;28;20056;-82
2022/11/10 08:29:05;;;;;;;25.67;6.32;;;;;;;;;;5017160;28;20065;-79
2022/11/10 08:31:36;;;;;;;29.58;6.82;;;;;;;;;;5019216;28;20093;-78
2022/11/10 08:34:02;;;;;;;27.10;5.82;;;;;;;;;;5017260;28;20053;-78
2022/11/10 08:36:28;;;;;;;23.52;5.70;;;;;;;;;;4993456;28;20049;-78
2022/11/10 08:38:54;;;;;;;23.25;5.35;;;;;;;;;;5007438;28;20154;-79
2022/11/10 08:41:21;;;;;;;37.85;7.32;;;;;;;;;;5022459;28;20044;-78
2022/11/10 08:43:47;;;;;;;24.58;6.25;;;;;;;;;;5004905;28;20044;-78
2022/11/10 08:46:13;;;;;;;28.35;6.00;;;;;;;;;;5032390;28;20049;-79
2022/11/10 08:48:39;;;;;;;29.70;6.82;;;;;;;;;;5025874;28;20045;-79
2022/11/10 08:51:05;;;;;;;31.92;7.65;;;;;;;;;;5025250;28;20045;-79
2022/11/10 08:53:31;;;;;;;29.00;5.88;;;;;;;;;;5005943;28;20463;-79
2022/11/10 08:56:00;;;;;;;21.65;5.72;;;;;;;;;;4994311;28;20086;-78
2022/11/10 08:58:26;;;;;;;23.48;5.45;;;;;;;;;;5008152;28;20132;-78
2022/11/10 09:00:52;;;;;;;19.40;5.70;;;;;;;;;;5006242;28;20107;-78
2022/11/10 09:03:20;;;;;;;32.22;6.68;;;;;;;;;;5002880;28;20066;-78
2022/11/10 09:05:46;;;;;;;30.90;6.18;;;;;;;;;;5017240;28;20067;-78
2022/11/10 09:08:13;;;;;;;26.98;6.38;;;;;;;;;;5031639;28;20049;-78
2022/11/10 09:10:41;;;;;;;29.42;6.88;;;;;;;;;;5021165;28;20067;-78
2022/11/10 09:13:07;;;;;;;23.15;6.05;;;;;;;;;;5005807;28;20033;-78
2022/11/10 09:15:34;;;;;;;33.17;7.28;;;;;;;;;;5033556;28;20112;-78
2022/11/10 09:18:01;;;;;;;21.65;5.88;;;;;;;;;;5019403;28;20056;-78
2022/11/10 09:20:28;;;;;;;26.50;7.10;;;;;;;;;;5011644;28;20045;-79
2022/11/10 09:22:54;;;;;;;31.83;7.30;;;;;;;;;;5007391;28;20507;-79
2022/11/10 09:25:20;;;;;;;23.17;5.25;;;;;;;;;;5006162;28;20040;-79
2022/11/10 09:27:47;;;;;;;20.52;6.18;;;;;;;;;;4986423;28;20045;-79
2022/11/10 09:30:13;;;;;;;23.80;5.53;;;;;;;;;;5001283;28;20421;-79
2022/11/10 09:32:39;;;;;;;20.45;5.40;;;;;;;;;;5023225;28;20067;-79
2022/11/10 09:35:05;;;;;;;24.13;5.18;;;;;;;;;;4998615;28;20080;-79
2022/11/10 09:37:32;;;;;;;26.05;6.20;;;;;;;;;;4999748;28;20749;-79
2022/11/10 09:39:58;;;;;;;25.55;5.75;;;;;;;;;;5016730;28;20048;-79
2022/11/10 09:42:27;;;;;;;20.92;4.90;;;;;;;;;;5001115;28;20045;-80
2022/11/10 09:45:06;;;;;;;23.05;5.65;;;;;;;;;;5018865;28;20489;-79
2022/11/10 09:47:41;;;;;;;23.58;6.07;;;;;;;;;;5010497;28;20671;-78
2022/11/10 09:50:10;;;;;;;25.15;5.93;;;;;;;;;;4998808;28;20110;-79
2022/11/10 09:52:37;;;;;;;21.25;5.30;;;;;;;;;;5009255;28;20441;-73
2022/11/10 09:55:13;;;;;;;29.50;5.97;;;;;;;;;;5032843;28;20076;-79
2022/11/10 09:57:40;;;;;;;22.90;4.50;;;;;;;;;;5034482;28;20080;-71
2022/11/10 10:00:07;;;;;;;19.38;4.55;;;;;;;;;;5055109;28;20770;-78
2022/11/10 10:02:35;;;;;;;32.00;6.55;;;;;;;;;;4997080;28;20048;-78
2022/11/10 10:05:20;;;;;;;22.75;5.78;;;;;;;;;;4993423;28;20037;-79
2022/11/10 10:08:06;;;;;;;21.05;4.22;;;;;;;;;;4989846;28;20179;-81
2022/11/10 10:10:48;;;;;;;20.65;5.22;;;;;;;;;;5001956;28;20052;-80
2022/11/10 10:13:14;;;;;;;17.65;4.53;;;;;;;;;;5021998;28;20106;-82
2022/11/10 10:15:55;;;;;;;21.15;5.63;;;;;;;;;;5001620;28;20060;-81
2022/11/10 10:18:30;;;;;;;22.40;5.38;;;;;;;;;;5015557;28;20049;-82
2022/11/10 10:21:05;;;;;;;25.38;5.97;;;;;;;;;;5003570;28;20040;-82
2022/11/10 10:23:36;;;;;;;19.27;5.20;;;;;;;;;;5020581;28;20047;-83
2022/11/10 10:26:02;;;;;;;26.38;7.35;;;;;;;;;;4993661;28;20029;-82
2022/11/10 10:28:32;;;;;;;65.10;8.73;;;;;;;;;;4999885;28;20204;-82
2022/11/10 10:31:19;;;;;;;25.38;6.22;;;;;;;;;;5002503;28;20045;-81
2022/11/10 10:33:46;;;;;;;22.05;6.50;;;;;;;;;;5016205;28;20238;-82
2022/11/10 10:36:30;;;;;;;25.08;6.35;;;;;;;;;;4993629;28;21932;-82
2022/11/10 10:39:00;;;;;;;29.23;7.30;;;;;;;;;;5022697;28;20044;-81
2022/11/10 10:41:27;;;;;;;17.60;6.35;;;;;;;;;;5004607;28;20132;-82
2022/11/10 10:43:55;;;;;;;23.77;7.95;;;;;;;;;;5017141;28;20048;-82
2022/11/10 10:46:30;;;;;;;18.83;6.82;;;;;;;;;;5018267;28;20045;-82
2022/11/10 10:49:12;;;;;;;25.60;7.05;;;;;;;;;;4999376;28;20052;-81
2022/11/10 10:51:38;;;;;;;20.85;7.35;;;;;;;;;;5011367;28;20045;-82
2022/11/10 10:54:04;;;;;;;28.80;7.38;;;;;;;;;;5039513;28;20229;-81
2022/11/10 10:56:32;;;;;;;22.15;6.45;;;;;;;;;;5023676;28;20152;-81
2022/11/10 10:59:00;;;;;;;20.42;5.55;;;;;;;;;;5044279;28;20063;-83
2022/11/10 11:01:30;;;;;;;23.70;5.75;;;;;;;;;;5039344;28;20043;-81
2022/11/10 11:03:57;;;;;;;21.10;5.80;;;;;;;;;;5017173;28;20126;-82
2022/11/10 11:06:26;;;;;;;19.30;5.55;;;;;;;;;;4992102;28;20036;-81
2022/11/10 11:08:53;;;;;;;24.40;5.65;;;;;;;;;;5017637;28;20484;-81
2022/11/10 11:11:23;;;;;;;22.77;5.47;;;;;;;;;;5032975;28;20472;-82
2022/11/10 11:13:49;;;;;;;18.83;4.63;;;;;;;;;;5017562;28;20041;-82
2022/11/10 11:16:15;;;;;;;15.65;5.18;;;;;;;;;;5021036;28;20065;-83
2022/11/10 11:18:41;;;;;;;25.98;5.53;;;;;;;;;;5000071;28;20052;-82
2022/11/10 11:21:07;;;;;;;26.73;5.38;;;;;;;;;;5000365;28;20083;-82
2022/11/10 11:23:39;;;;;;;20.48;5.35;;;;;;;;;;5016239;28;20481;-83
2022/11/10 11:26:18;;;;;;;23.10;5.40;;;;;;;;;;4998456;28;20071;-82
2022/11/10 11:28:51;;;;;;;19.90;5.40;;;;;;;;;;5015138;28;20093;-82
2022/11/10 11:31:20;;;;;;;23.58;5.85;;;;;;;;;;5009571;28;20068;-82
2022/11/10 11:33:46;;;;;;;24.63;5.95;;;;;;;;;;5035130;28;20083;-82
2022/11/10 11:36:18;;;;;;;22.08;5.93;;;;;;;;;;5043250;28;20045;-81
2022/11/10 11:39:03;;;;;;;17.98;5.28;;;;;;;;;;5028287;28;20045;-82
2022/11/10 11:41:35;;;;;;;23.10;6.18;;;;;;;;;;5029759;28;20064;-81
2022/11/10 11:44:01;;;;;;;12.30;4.20;;;;;;;;;;4992423;28;20456;-82
2022/11/10 11:46:30;;;;;;;27.20;6.13;;;;;;;;;;5012477;28;20567;-82
2022/11/10 11:49:18;;;;;;;19.67;5.47;;;;;;;;;;5000713;28;20048;-82
2022/11/10 11:52:02;;;;;;;30.70;6.13;;;;;;;;;;5015453;28;20104;-82
2022/11/10 11:54:36;;;;;;;19.77;4.65;;;;;;;;;;5001292;28;20099;-82
2022/11/10 11:57:12;;;;;;;25.25;4.68;;;;;;;;;;5016468;28;20040;-82
2022/11/10 11:59:48;;;;;;;20.00;4.28;;;;;;;;;;5014806;28;20773;-82
2022/11/10 12:02:14;;;;;;;21.73;5.00;;;;;;;;;;5031409;28;20041;-81
2022/11/10 12:04:40;;;;;;;18.83;4.85;;;;;;;;;;4998347;28;20365;-82
2022/11/10 12:07:22;;;;;;;27.08;6.10;;;;;;;;;;5012643;28;20041;-81
2022/11/10 12:09:49;;;;;;;24.38;5.15;;;;;;;;;;4988775;28;20045;-81
2022/11/10 12:12:15;;;;;;;21.73;6.07;;;;;;;;;;5022269;28;20135;-81
2022/11/10 12:15:00;;;;;;;20.48;5.05;;;;;;;;;;5003970;28;21658;-82
2022/11/10 12:17:35;;;;;;;18.40;5.22;;;;;;;;;;5021369;28;20036;-80
2022/11/10 12:20:07;;;;;;;21.55;5.53;;;;;;;;;;5022256;28;20044;-80
2022/11/10 12:22:52;;;;;;;21.77;5.50;;;;;;;;;;5020396;28;20052;-80
2022/11/10 12:25:21;;;;;;;23.92;6.03;;;;;;;;;;5009676;28;20544;-80
2022/11/10 12:27:52;;;;;;;17.67;6.18;;;;;;;;;;5031875;28;20098;-80
2022/11/10 12:30:18;;;;;;;22.88;4.45;;;;;;;;;;5018153;28;20060;-80
2022/11/10 12:32:48;;;;;;;19.30;4.18;;;;;;;;;;5007982;28;20088;-80
2022/11/10 12:35:28;;;;;;;22.85;5.18;;;;;;;;;;5008808;28;20041;-80
2022/11/10 12:38:03;;;;;;;20.92;4.72;;;;;;;;;;5038739;28;20068;-80
2022/11/10 12:40:37;;;;;;;15.18;4.40;;;;;;;;;;5005954;28;20047;-80
2022/11/10 12:43:06;;;;;;;19.27;5.45;;;;;;;;;;5021944;28;20120;-79
2022/11/10 12:45:51;;;;;;;21.88;4.63;;;;;;;;;;5012842;28;20041;-79
2022/11/10 12:48:17;;;;;;;22.23;4.45;;;;;;;;;;4992224;28;20294;-80
2022/11/10 12:50:50;;;;;;;22.63;5.38;;;;;;;;;;5020552;28;20053;-81
2022/11/10 12:53:21;;;;;;;21.98;4.72;;;;;;;;;;5017297;28;20481;-79
2022/11/10 12:55:54;;;;;;;22.77;4.38;;;;;;;;;;5024365;28;22156;-80
2022/11/10 12:58:20;;;;;;;23.85;4.40;;;;;;;;;;5005647;28;20053;-80
2022/11/10 13:01:00;;;;;;;22.45;4.53;;;;;;;;;;5018828;28;20121;-69
2022/11/10 13:03:49;;;;;;;25.48;5.35;;;;;;;;;;5041918;28;21007;-80
2022/11/10 13:06:24;;;;;;;25.48;3.97;;;;;;;;;;5026026;28;20045;-79
2022/11/10 13:08:54;;;;;;;25.38;4.30;;;;;;;;;;5009713;28;20060;-79
2022/11/10 13:11:24;;;;;;;14.63;3.97;;;;;;;;;;5030623;28;20028;-80
2022/11/10 13:13:56;;;;;;;26.25;5.03;;;;;;;;;;5026521;28;20083;-80
2022/11/10 13:16:37;;;;;;;26.85;4.50;;;;;;;;;;5045041;28;20071;-80
2022/11/10 13:19:04;;;;;;;24.73;4.35;;;;;;;;;;5045313;28;20056;-80
2022/11/10 13:21:49;;;;;;;17.58;4.00;;;;;;;;;;5053055;28;20132;-79
2022/11/10 13:24:20;;;;;;;17.63;3.47;;;;;;;;;;5035463;28;20094;-80
2022/11/10 13:26:48;;;;;;;19.75;4.18;;;;;;;;;;5020478;28;20140;-81
2022/11/10 13:29:36;;;;;;;23.52;3.90;;;;;;;;;;4994812;28;20041;-80
2022/11/10 13:32:15;;;;;;;16.58;3.90;;;;;;;;;;5020411;28;20060;-80
2022/11/10 13:34:45;;;;;;;22.00;4.05;;;;;;;;;;4993191;28;20047;-80
2022/11/10 13:37:29;;;;;;;19.92;3.95;;;;;;;;;;5007864;28;20692;-81
2022/11/10 13:39:55;;;;;;;;;;;;;;;;;;5019233;28;20045;-77
2022/11/10 13:42:22;;;;;;;24.60;3.83;;;;;;;;;;4992863;28;19948;-79
2022/11/10 13:44:51;;;;;;;12.13;3.00;;;;;;;;;;5007104;28;20087;-78
2022/11/10 13:47:33;;;;;;;26.33;4.20;;;;;;;;;;5023139;28;20068;-79
2022/11/10 13:49:59;;;;;;;22.20;3.15;;;;;;;;;;5020672;28;20076;-79
2022/11/10 13:52:33;;;;;;;16.05;3.60;;;;;;;;;;5018587;28;20037;-79
2022/11/10 13:54:59;;;;;;;;;;;;;;;;;;5021945;28;20542;-79
2022/11/10 13:57:49;;;;;;;26.02;3.67;;;;;;;;;;5020119;28;19991;-78
2022/11/10 14:00:16;;;;;;;14.18;2.60;;;;;;;;;;5009228;28;20080;-79
2022/11/10 14:02:55;;;;;;;21.42;3.53;;;;;;;;;;5023054;28;20468;-78
2022/11/10 14:05:41;;;;;;;15.55;3.40;;;;;;;;;;5031054;28;20443;-78
2022/11/10 14:08:10;;;;;;;18.48;3.05;;;;;;;;;;5026327;28;20377;-79
2022/11/10 14:10:36;;;;;;;20.05;3.90;;;;;;;;;;5005494;28;20051;-79
2022/11/10 14:13:15;;;;;;;19.35;3.83;;;;;;;;;;5020438;28;20958;-79
2022/11/10 14:15:46;;;;;;;20.55;3.40;;;;;;;;;;5003780;28;20083;-79
2022/11/10 14:18:23;;;;;;;25.92;4.22;;;;;;;;;;5001655;28;20055;-78
2022/11/10 14:21:00;;;;;;;18.25;3.40;;;;;;;;;;5016879;28;20100;-78
2022/11/10 14:23:31;;;;;;;17.67;2.95;;;;;;;;;;5019646;28;20124;-77
2022/11/10 14:26:02;;;;;;;17.17;2.97;;;;;;;;;;5011605;28;20044;-77
2022/11/10 14:28:29;;;;;;;19.33;3.45;;;;;;;;;;4995678;28;20484;-78
2022/11/10 14:30:56;;;;;;;16.50;2.63;;;;;;;;;;5015456;28;20186;-78
2022/11/10 14:33:23;;;;;;;16.20;3.05;;;;;;;;;;4989996;28;20049;-78
2022/11/10 14:36:03;;;;;;;29.77;3.53;;;;;;;;;;5012754;28;20478;-78
2022/11/10 14:38:36;;;;;;;19.85;3.08;;;;;;;;;;4998465;28;20134;-78
2022/11/10 14:41:04;;;;;;;16.98;2.72;;;;;;;;;;5011041;28;20052;-79
2022/11/10 14:43:31;;;;;;;19.15;3.40;;;;;;;;;;5008328;28;20672;-79
2022/11/10 14:45:58;;;;;;;18.65;3.47;;;;;;;;;;4987951;28;20123;-78
2022/11/10 14:48:25;;;;;;;12.30;2.30;;;;;;;;;;4991660;28;20056;-78
2022/11/10 14:50:52;;;;;;;27.90;3.85;;;;;;;;;;5004132;28;20080;-77
2022/11/10 14:53:20;;;;;;;18.10;3.42;;;;;;;;;;5013528;28;20053;-75